createdAt,value
2023-08-11T00:04:15.449Z,100526.47
2023-08-11T00:09:16.783Z,100529.78
2023-08-11T00:14:18.148Z,100525.00
2023-08-11T00:19:19.468Z,100524.31
2023-08-11T00:24:20.810Z,100532.28
2023-08-11T00:29:22.133Z,100535.63
2023-08-11T00:34:23.425Z,100529.53
2023-08-11T00:39:24.780Z,100527.03
2023-08-11T00:44:26.081Z,100530.25
2023-08-11T00:49:27.373Z,100538.69
2023-08-11T00:54:28.926Z,100539.31
2023-08-11T00:59:30.264Z,100535.13
2023-08-11T01:04:31.552Z,100534.31
2023-08-11T01:09:32.762Z,100536.78
2023-08-11T01:14:38.160Z,100533.56
2023-08-11T01:19:39.473Z,100532.41
2023-08-11T01:24:40.810Z,100540.13
2023-08-11T01:29:42.122Z,100532.53
2023-08-11T01:34:43.416Z,100541.19
2023-08-11T01:39:44.764Z,100539.31
2023-08-11T01:44:46.622Z,100536.56
2023-08-11T01:49:48.094Z,100535.72
2023-08-11T01:54:49.382Z,100543.09
2023-08-11T01:59:51.011Z,100542.88
2023-08-11T02:04:52.434Z,100541.69
2023-08-11T02:09:55.569Z,100550.00
2023-08-11T02:14:56.906Z,100543.09
2023-08-11T02:19:59.244Z,100541.41
2023-08-11T02:25:00.593Z,100546.31
2023-08-11T02:30:02.967Z,100546.31
2023-08-11T02:35:04.788Z,100546.56
2023-08-11T02:40:10.343Z,100548.22
2023-08-11T02:45:12.253Z,100559.63
2023-08-11T02:50:14.348Z,100563.19
2023-08-11T02:55:16.010Z,100567.97
2023-08-11T03:00:17.299Z,100561.66
2023-08-11T03:05:18.637Z,100570.34
2023-08-11T03:10:19.934Z,100574.97
2023-08-11T03:15:21.338Z,100570.56
2023-08-11T03:20:22.672Z,100572.25
2023-08-11T03:25:24.015Z,100567.03
2023-08-11T03:30:25.563Z,100568.66
2023-08-11T03:35:26.860Z,100582.13
2023-08-11T03:40:29.520Z,100568.09
2023-08-11T03:45:30.830Z,100568.91
2023-08-11T03:50:32.147Z,100576.03
2023-08-11T03:55:33.476Z,100580.44
2023-08-11T04:00:34.813Z,100577.72
2023-08-11T04:05:38.835Z,100582.59
2023-08-11T04:10:40.172Z,100592.59
2023-08-11T04:15:41.469Z,100597.94
2023-08-11T04:20:42.771Z,100595.91
2023-08-11T04:25:44.369Z,100595.53
2023-08-11T04:30:45.815Z,100598.88
2023-08-11T04:35:47.579Z,100593.19
2023-08-11T04:40:51.882Z,100594.69
2023-08-11T04:45:53.183Z,100600.53
2023-08-11T04:50:57.437Z,100601.38
2023-08-11T04:55:58.763Z,100599.00
2023-08-11T05:01:00.476Z,100607.81
2023-08-11T05:06:03.809Z,100617.72
2023-08-11T05:11:06.479Z,100621.50
2023-08-11T05:16:07.847Z,100622.72
2023-08-11T05:21:09.232Z,100630.66
2023-08-11T05:26:10.527Z,100624.34
2023-08-11T05:31:12.057Z,100635.22
2023-08-11T05:36:13.351Z,100636.28
2023-08-11T05:41:14.674Z,100632.22
2023-08-11T05:46:16.136Z,100642.97
2023-08-11T05:51:17.576Z,100641.66
2023-08-11T05:56:18.877Z,100647.72
2023-08-11T06:01:20.204Z,100641.44
2023-08-11T06:06:21.526Z,100642.25
2023-08-11T06:11:22.818Z,100651.53
2023-08-11T06:16:24.249Z,100646.94
2023-08-11T06:21:25.624Z,100649.09
2023-08-11T06:26:26.967Z,100648.53
2023-08-11T06:31:28.352Z,100658.28
2023-08-11T06:36:30.223Z,100659.22
2023-08-11T06:41:31.554Z,100665.44
2023-08-11T06:46:32.863Z,100667.13
2023-08-11T06:51:34.174Z,100672.09
2023-08-11T06:56:35.512Z,100680.94
2023-08-11T07:01:36.859Z,100684.25
2023-08-11T07:06:38.241Z,100681.63
2023-08-11T07:11:39.536Z,100683.53
2023-08-11T07:16:40.897Z,100691.66
2023-08-11T07:21:42.196Z,100693.78
2023-08-11T07:26:43.487Z,100700.72
2023-08-11T07:31:44.834Z,100699.16
2023-08-11T07:36:46.212Z,100702.13
2023-08-11T07:41:47.728Z,100698.91
2023-08-11T07:46:49.133Z,100687.84
2023-08-11T07:51:50.516Z,100697.25
2023-08-11T07:56:51.842Z,100699.31
2023-08-11T08:06:54.750Z,100693.81
2023-08-11T08:11:56.043Z,100689.88
2023-08-11T08:16:59.461Z,100689.03
2023-08-11T08:22:00.785Z,100692.97
2023-08-11T08:27:02.102Z,100690.94
2023-08-11T08:32:03.429Z,100702.50
2023-08-11T08:37:04.798Z,100702.72
2023-08-11T08:42:06.107Z,100699.03
2023-08-11T08:47:07.698Z,100709.28
2023-08-11T08:52:09.246Z,100699.16
2023-08-11T08:57:12.302Z,100705.56
2023-08-11T09:02:15.751Z,100699.34
2023-08-11T09:07:20.101Z,100701.88
2023-08-11T09:12:26.814Z,100693.97
2023-08-11T09:17:28.328Z,100690.75
2023-08-11T09:22:33.508Z,100684.28
2023-08-11T09:27:34.911Z,100685.97
2023-08-11T09:32:36.248Z,100675.81
2023-08-11T09:37:37.962Z,100678.66
2023-08-11T09:42:39.434Z,100673.66
2023-08-11T09:47:41.022Z,100681.13
2023-08-11T09:52:42.674Z,100678.88
2023-08-11T09:57:44.131Z,100666.00
2023-08-11T10:02:47.177Z,100666.59
2023-08-11T10:07:48.518Z,100670.75
2023-08-11T10:12:53.017Z,100667.19
2023-08-11T10:17:55.136Z,100664.78
2023-08-11T10:22:57.131Z,100666.44
2023-08-11T10:27:58.434Z,100664.28
2023-08-11T10:33:09.258Z,100660.72
2023-08-11T10:38:11.358Z,100661.06
2023-08-11T10:43:12.655Z,100663.94
2023-08-11T10:48:13.950Z,100662.13
2023-08-11T10:53:20.571Z,100653.63
2023-08-11T10:58:23.127Z,100649.56
2023-08-11T11:03:24.429Z,100653.25
2023-08-11T11:08:25.751Z,100647.50
2023-08-11T11:13:27.040Z,100647.84
2023-08-11T11:18:28.348Z,100640.44
2023-08-11T11:23:29.639Z,100636.59
2023-08-11T11:28:31.499Z,100629.63
2023-08-11T11:33:32.863Z,100626.66
2023-08-11T11:38:34.179Z,100622.31
2023-08-11T11:43:35.486Z,100609.41
2023-08-11T11:48:36.788Z,100614.06
2023-08-11T11:53:39.545Z,100628.63
2023-08-11T11:58:40.946Z,100624.06
2023-08-11T12:03:42.497Z,100629.03
2023-08-11T12:08:44.018Z,100621.38
2023-08-11T12:13:47.901Z,100610.72
2023-08-11T12:18:49.414Z,100610.59
2023-08-11T12:23:50.714Z,100602.38
2023-08-11T12:28:52.024Z,100606.25
2023-08-11T12:33:53.387Z,100599.13
2023-08-11T12:38:54.752Z,100596.44
2023-08-11T12:43:56.102Z,100587.13
2023-08-11T12:48:57.944Z,100592.00
2023-08-11T12:53:59.233Z,100591.50
2023-08-11T12:59:00.571Z,100591.78
2023-08-11T13:04:02.621Z,100581.63
2023-08-11T13:09:03.942Z,100587.13
2023-08-11T13:14:05.267Z,100588.53
2023-08-11T13:19:06.629Z,100583.78
2023-08-11T13:24:08.375Z,100587.13
2023-08-11T13:29:10.715Z,100587.97
2023-08-11T13:34:12.019Z,100581.34
2023-08-11T13:39:13.743Z,100581.94
2023-08-11T13:44:15.152Z,100575.13
2023-08-11T13:49:16.552Z,100577.88
2023-08-11T13:54:17.864Z,100576.19
2023-08-11T13:59:19.152Z,100566.63
2023-08-11T14:04:20.457Z,100567.94
2023-08-11T14:09:21.773Z,100572.09
2023-08-11T14:14:23.074Z,100573.44
2023-08-11T14:19:24.370Z,100564.13
2023-08-11T14:24:25.680Z,100563.53
2023-08-11T14:29:26.988Z,100558.25
2023-08-11T14:34:28.274Z,100547.25
2023-08-11T14:39:29.585Z,100550.81
2023-08-11T14:44:30.971Z,100560.16
2023-08-11T14:49:32.315Z,100557.41
2023-08-11T14:54:33.627Z,100550.22
2023-08-11T14:59:34.934Z,100560.88
2023-08-11T15:04:36.251Z,100542.06
2023-08-11T15:09:37.591Z,100542.84
2023-08-11T15:14:38.893Z,100545.75
2023-08-11T15:19:40.192Z,100552.25
2023-08-11T15:24:41.484Z,100543.66
2023-08-11T15:29:42.901Z,100543.34
2023-08-11T15:34:44.318Z,100546.84
2023-08-11T15:39:45.655Z,100534.16
2023-08-11T15:44:47.370Z,100526.69
2023-08-11T15:49:48.658Z,100523.03
2023-08-11T15:54:49.945Z,100523.28
2023-08-11T15:59:51.230Z,100518.41
2023-08-11T16:04:52.826Z,100513.41
2023-08-11T16:09:54.158Z,100505.91
2023-08-11T16:14:55.521Z,100512.56
2023-08-11T16:19:56.888Z,100517.47
2023-08-11T16:24:58.178Z,100515.56
2023-08-11T16:29:59.904Z,100509.56
2023-08-11T16:35:01.426Z,100507.06
2023-08-11T16:40:03.719Z,100506.31
2023-08-11T16:45:05.210Z,100496.16
2023-08-11T16:50:07.905Z,100494.59
2023-08-11T16:55:09.306Z,100499.25
2023-08-11T17:00:11.988Z,100504.75
2023-08-11T17:05:13.357Z,100504.47
2023-08-11T17:10:14.880Z,100499.81
2023-08-11T17:15:17.873Z,100503.56
2023-08-11T17:20:19.259Z,100494.19
2023-08-11T17:25:21.466Z,100498.28
2023-08-11T17:30:22.851Z,100500.19
2023-08-11T17:35:24.247Z,100490.75
2023-08-11T17:40:25.544Z,100486.38
2023-08-11T17:45:26.909Z,100489.63
2023-08-11T17:50:28.243Z,100493.44
2023-08-11T17:55:29.547Z,100496.69
2023-08-11T18:00:30.879Z,100500.59
2023-08-11T18:05:32.191Z,100503.56
2023-08-11T18:10:33.507Z,100506.81
2023-08-11T18:15:34.860Z,100505.16
2023-08-11T18:20:36.165Z,100493.34
2023-08-11T18:25:37.613Z,100502.66
2023-08-11T18:30:39.719Z,100500.19
2023-08-11T18:35:41.482Z,100510.31
2023-08-11T18:40:42.795Z,100501.47
2023-08-11T18:45:44.083Z,100498.97
2023-08-11T18:50:45.941Z,100502.56
2023-08-11T18:55:47.244Z,100498.75
2023-08-11T19:00:48.536Z,100502.56
2023-08-11T19:05:49.838Z,100491.00
2023-08-11T19:10:51.134Z,100494.81
2023-08-11T19:15:52.423Z,100489.31
2023-08-11T19:20:53.743Z,100500.31
2023-08-11T19:25:55.038Z,100493.13
2023-08-11T19:30:56.404Z,100502.69
2023-08-11T19:35:57.713Z,100502.34
2023-08-11T19:40:59.018Z,100505.59
2023-08-11T19:46:00.349Z,100506.94
2023-08-11T19:51:01.666Z,100497.78
2023-08-11T19:56:02.971Z,100506.34
2023-08-11T20:01:06.848Z,100512.59
2023-08-11T20:06:08.226Z,100510.91
2023-08-11T20:11:09.518Z,100513.31
2023-08-11T20:16:10.945Z,100515.84
2023-08-11T20:21:12.284Z,100515.00
2023-08-11T20:26:13.604Z,100511.91
2023-08-11T20:31:15.085Z,100511.31
2023-08-11T20:36:16.400Z,100514.66
2023-08-11T20:41:17.703Z,100512.66
2023-08-11T20:46:19.360Z,100516.81
2023-08-11T20:51:20.671Z,100512.03
2023-08-11T20:56:21.975Z,100510.28
2023-08-11T21:01:23.375Z,100507.31
2023-08-11T21:06:24.674Z,100511.63
2023-08-11T21:11:25.971Z,100498.50
2023-08-11T21:16:27.371Z,100497.31
2023-08-11T21:21:28.685Z,100499.97
2023-08-11T21:26:31.322Z,100495.34
2023-08-11T21:31:32.712Z,100493.09
2023-08-11T21:36:34.190Z,100477.34
2023-08-11T21:41:36.047Z,100483.09
2023-08-11T21:46:37.364Z,100484.16
2023-08-11T21:51:38.709Z,100486.56
2023-08-11T21:56:40.041Z,100490.97
2023-08-11T22:01:41.940Z,100490.50
2023-08-11T22:06:43.318Z,100485.25
2023-08-11T22:11:44.639Z,100497.88
2023-08-11T22:16:45.985Z,100491.91
2023-08-11T22:21:47.291Z,100493.72
2023-08-11T22:26:48.592Z,100494.56
2023-08-11T22:31:49.938Z,100490.03
2023-08-11T22:36:52.288Z,100494.94
2023-08-11T22:41:53.770Z,100493.41
2023-08-11T22:46:55.104Z,100487.56
2023-08-11T22:51:56.398Z,100484.13
2023-08-11T22:56:57.711Z,100477.56
2023-08-11T23:01:59.054Z,100475.19
2023-08-11T23:07:00.417Z,100471.38
2023-08-11T23:12:04.347Z,100476.88
2023-08-11T23:17:06.205Z,100477.13
2023-08-11T23:22:07.504Z,100477.00
2023-08-11T23:27:09.153Z,100469.53
2023-08-11T23:32:10.901Z,100456.22
2023-08-11T23:37:12.532Z,100462.97
2023-08-11T23:42:15.421Z,100464.16
2023-08-11T23:47:16.767Z,100464.28
2023-08-11T23:52:19.391Z,100465.13
2023-08-11T23:57:22.841Z,100455.03
